createdAt,value
2017-09-13T00:00:39.413Z,0
2017-09-13T00:01:39.077Z,0
2017-09-13T00:02:39.412Z,0
2017-09-13T00:03:39.395Z,0
2017-09-13T00:04:39.723Z,0
2017-09-13T00:05:39.361Z,0
2017-09-13T00:06:39.033Z,0
2017-09-13T00:07:39.011Z,0
2017-09-13T00:08:39.687Z,0
2017-09-13T00:09:39.322Z,0
2017-09-13T00:10:39.641Z,0
2017-09-13T00:11:38.992Z,0
2017-09-13T00:12:39.293Z,0
2017-09-13T00:13:39.625Z,0
2017-09-13T00:14:39.635Z,0
2017-09-13T00:15:39.918Z,0
2017-09-13T00:16:39.908Z,0
2017-09-13T00:17:39.908Z,0
2017-09-13T00:18:39.256Z,0
2017-09-13T00:19:38.896Z,0
2017-09-13T00:20:39.873Z,0
2017-09-13T00:21:39.216Z,0
2017-09-13T00:22:39.197Z,0
2017-09-13T00:23:39.510Z,0
2017-09-13T00:24:39.529Z,0
2017-09-13T00:25:39.516Z,0
2017-09-13T00:26:39.826Z,0
2017-09-13T00:27:39.528Z,0
2017-09-13T00:28:38.807Z,0
2017-09-13T00:29:39.453Z,0
2017-09-13T00:30:38.796Z,0
2017-09-13T00:31:39.109Z,0
2017-09-13T00:32:39.095Z,0
2017-09-13T00:33:39.426Z,0
2017-09-13T00:34:39.420Z,0
2017-09-13T00:35:39.096Z,0
2017-09-13T00:36:38.729Z,0
2017-09-13T00:37:39.074Z,0
2017-09-13T00:38:39.041Z,0
2017-09-13T00:39:39.027Z,0
2017-09-13T00:40:39.377Z,0
2017-09-13T00:41:39.687Z,0
2017-09-13T00:42:39.323Z,0
2017-09-13T00:43:38.663Z,0
2017-09-13T00:44:38.997Z,0
2017-09-13T00:45:38.999Z,0
2017-09-13T00:46:38.964Z,0
2017-09-13T00:47:39.309Z,0
2017-09-13T00:48:38.986Z,0
2017-09-13T00:49:38.933Z,0
2017-09-13T00:50:38.950Z,0
2017-09-13T00:51:38.933Z,0
2017-09-13T00:52:39.568Z,0
2017-09-13T00:53:38.582Z,0
2017-09-13T00:54:38.894Z,0
2017-09-13T00:55:38.558Z,0
2017-09-13T00:56:38.893Z,0
2017-09-13T00:57:39.194Z,0
2017-09-13T00:58:38.536Z,0
2017-09-13T00:59:38.526Z,0
2017-09-13T01:00:41.084Z,0
2017-09-13T01:01:38.816Z,0
2017-09-13T01:02:39.140Z,0
2017-09-13T01:03:39.128Z,0
2017-09-13T01:04:38.459Z,0
2017-09-13T01:05:39.109Z,0
2017-09-13T01:06:39.100Z,0
2017-09-13T01:07:38.768Z,0
2017-09-13T01:12:12.710Z,0
2017-09-13T01:12:43.917Z,0
2017-09-13T01:13:44.727Z,0
2017-09-13T01:14:43.874Z,0
2017-09-13T01:15:45.085Z,0
2017-09-13T01:16:45.063Z,0
2017-09-13T01:17:44.084Z,0
2017-09-13T01:18:44.516Z,0
2017-09-13T01:19:44.816Z,0
2017-09-13T01:20:44.434Z,0
2017-09-13T01:21:44.935Z,0
2017-09-13T01:22:44.977Z,0
2017-09-13T01:23:44.882Z,0
2017-09-13T01:24:45.219Z,0
2017-09-13T01:25:44.843Z,0
2017-09-13T01:26:44.385Z,0
2017-09-13T01:27:44.678Z,0
2017-09-13T01:28:44.317Z,0
2017-09-13T01:29:43.765Z,0
2017-09-13T01:30:44.835Z,0
2017-09-13T01:31:44.105Z,0
2017-09-13T01:32:43.714Z,0
2017-09-13T01:33:44.802Z,0
2017-09-13T01:34:43.758Z,0
2017-09-13T01:35:43.558Z,0
2017-09-13T01:36:44.773Z,0
2017-09-13T01:37:45.166Z,0
2017-09-13T01:38:44.755Z,0
2017-09-13T01:39:44.592Z,0
2017-09-13T01:40:44.718Z,0
2017-09-13T01:41:45.447Z,0
2017-09-13T01:42:44.877Z,0
2017-09-13T01:43:45.205Z,0
2017-09-13T01:44:48.548Z,0
2017-09-13T01:45:44.008Z,0
2017-09-13T01:46:43.832Z,0
2017-09-13T01:47:44.003Z,0
2017-09-13T01:48:44.407Z,0
2017-09-13T01:49:43.970Z,0
2017-09-13T01:50:44.255Z,0
2017-09-13T01:51:44.607Z,0
2017-09-13T01:52:44.265Z,0
2017-09-13T01:53:44.539Z,0
2017-09-13T01:54:43.711Z,0
2017-09-13T01:55:44.000Z,0
2017-09-13T01:56:43.670Z,0
2017-09-13T01:57:44.875Z,0
2017-09-13T01:58:44.231Z,0
2017-09-13T01:59:44.607Z,0
2017-09-13T02:00:44.447Z,0
2017-09-13T02:01:44.907Z,0
2017-09-13T02:02:44.886Z,0
2017-09-13T02:03:43.584Z,0
2017-09-13T02:04:44.471Z,0
2017-09-13T02:05:45.204Z,0
2017-09-13T02:06:43.736Z,0
2017-09-13T02:07:44.353Z,0
2017-09-13T02:08:43.969Z,0
2017-09-13T02:09:44.811Z,0
2017-09-13T02:10:43.503Z,0
2017-09-13T02:11:44.402Z,0
2017-09-13T02:12:44.288Z,0
2017-09-13T02:13:44.084Z,0
2017-09-13T02:14:43.478Z,0
2017-09-13T02:15:44.777Z,0
2017-09-13T02:16:43.239Z,0
2017-09-13T02:17:43.669Z,0
2017-09-13T02:18:44.238Z,0
2017-09-13T02:19:44.378Z,0
2017-09-13T02:20:43.673Z,0
2017-09-13T02:21:44.196Z,0
2017-09-13T02:22:44.013Z,0
2017-09-13T02:23:43.551Z,0
2017-09-13T02:24:44.179Z,0
2017-09-13T02:25:44.728Z,0
2017-09-13T02:26:44.228Z,0
2017-09-13T02:27:44.176Z,0
2017-09-13T02:28:43.920Z,0
2017-09-13T02:29:43.226Z,0
2017-09-13T02:30:43.319Z,0
2017-09-13T02:31:43.259Z,0
2017-09-13T02:32:44.424Z,0
2017-09-13T02:33:43.354Z,0
2017-09-13T02:34:43.520Z,0
2017-09-13T02:35:43.445Z,0
2017-09-13T02:36:43.259Z,0
2017-09-13T02:37:43.841Z,0
2017-09-13T02:38:44.030Z,0
2017-09-13T02:39:44.058Z,0
2017-09-13T02:40:44.026Z,0
2017-09-13T02:41:44.341Z,0
2017-09-13T02:42:43.351Z,0
2017-09-13T02:43:42.902Z,0
2017-09-13T02:44:44.044Z,0
2017-09-13T02:45:43.745Z,0
2017-09-13T02:46:41.356Z,0
2017-09-13T02:47:41.360Z,0
2017-09-13T02:48:40.993Z,0
2017-09-13T02:49:41.976Z,0
2017-09-13T02:50:41.688Z,0
2017-09-13T02:51:41.618Z,0
2017-09-13T02:52:41.290Z,0
2017-09-13T02:53:40.943Z,0
2017-09-13T02:54:41.614Z,0
2017-09-13T02:55:41.604Z,0
2017-09-13T02:56:41.251Z,0
2017-09-13T02:57:41.890Z,0
2017-09-13T02:58:41.909Z,0
2017-09-13T02:59:41.566Z,0
2017-09-13T03:00:41.533Z,0
2017-09-13T03:01:41.881Z,0
2017-09-13T03:02:41.534Z,0
2017-09-13T03:03:41.508Z,0
2017-09-13T03:04:41.177Z,0
2017-09-13T03:05:41.488Z,0
2017-09-13T03:06:41.495Z,0
2017-09-13T03:07:41.467Z,0
2017-09-13T03:08:41.462Z,0
2017-09-13T03:09:41.116Z,0
2017-09-13T03:10:41.448Z,0
2017-09-13T03:11:41.440Z,0
2017-09-13T03:12:40.774Z,0
2017-09-13T03:13:41.073Z,0
2017-09-13T03:14:40.887Z,0
2017-09-13T03:15:40.730Z,0
2017-09-13T03:16:41.376Z,0
2017-09-13T03:17:41.029Z,0
2017-09-13T03:18:41.372Z,0
2017-09-13T03:19:41.343Z,0
2017-09-13T03:20:41.005Z,0
2017-09-13T03:21:40.662Z,0
2017-09-13T03:22:40.996Z,0
2017-09-13T03:23:40.976Z,0
2017-09-13T03:24:40.637Z,0
2017-09-13T03:25:41.309Z,0
2017-09-13T03:26:40.963Z,0
2017-09-13T03:27:40.629Z,0
2017-09-13T03:28:40.940Z,0
2017-09-13T03:29:40.948Z,0
2017-09-13T03:30:41.122Z,0
2017-09-13T03:31:41.256Z,0
2017-09-13T03:32:40.901Z,0
2017-09-13T03:33:40.873Z,0
2017-09-13T03:34:40.533Z,0
2017-09-13T03:35:41.208Z,0
2017-09-13T03:36:41.182Z,0
2017-09-13T03:37:40.830Z,0
2017-09-13T03:38:40.826Z,0
2017-09-13T03:39:40.484Z,0
2017-09-13T03:40:40.476Z,0
2017-09-13T03:41:40.809Z,0
2017-09-13T03:42:40.783Z,0
2017-09-13T03:43:40.771Z,0
2017-09-13T03:44:41.120Z,0
2017-09-13T03:45:40.763Z,0
2017-09-13T03:46:40.740Z,0
2017-09-13T03:47:40.430Z,0
2017-09-13T03:48:41.412Z,0
2017-09-13T03:49:41.373Z,0
2017-09-13T03:50:40.411Z,0
2017-09-13T03:51:40.713Z,0
2017-09-13T03:52:40.705Z,0
2017-09-13T03:53:40.996Z,0
2017-09-13T03:54:40.355Z,0
2017-09-13T03:55:40.993Z,0
2017-09-13T03:56:40.983Z,0
2017-09-13T03:57:40.636Z,0
2017-09-13T03:58:40.967Z,0
2017-09-13T03:59:40.283Z,0
2017-09-13T04:00:40.628Z,0
2017-09-13T04:01:40.304Z,0
2017-09-13T04:02:41.251Z,0
2017-09-13T04:03:40.936Z,0
2017-09-13T04:04:40.951Z,0
2017-09-13T04:05:40.560Z,0
2017-09-13T04:06:40.868Z,0
2017-09-13T04:07:41.523Z,0
2017-09-13T04:08:40.847Z,0
2017-09-13T04:09:40.511Z,0
2017-09-13T04:10:40.832Z,0
2017-09-13T04:11:41.193Z,0
2017-09-13T04:12:40.814Z,0
2017-09-13T04:13:40.157Z,0
2017-09-13T04:14:40.138Z,0
2017-09-13T04:15:40.127Z,0
2017-09-13T04:16:40.775Z,0
2017-09-13T04:17:40.115Z,0
2017-09-13T04:18:40.425Z,0
2017-09-13T04:19:40.083Z,0
2017-09-13T04:20:40.089Z,0
2017-09-13T04:21:40.387Z,0
2017-09-13T04:22:40.385Z,0
2017-09-13T04:23:40.048Z,0
2017-09-13T04:24:40.386Z,0
2017-09-13T04:25:40.360Z,0
2017-09-13T04:26:40.015Z,0
2017-09-13T04:27:40.678Z,0
2017-09-13T04:28:40.667Z,0
2017-09-13T04:29:40.317Z,0
2017-09-13T04:30:40.302Z,0
2017-09-13T04:31:40.963Z,0
2017-09-13T04:32:39.974Z,0
2017-09-13T04:33:39.964Z,0
2017-09-13T04:34:40.601Z,0
2017-09-13T04:35:40.255Z,0
2017-09-13T04:36:40.578Z,0
2017-09-13T04:37:40.903Z,0
2017-09-13T04:38:40.898Z,5
2017-09-13T04:39:39.932Z,5
2017-09-13T04:40:40.556Z,5
2017-09-13T04:41:40.565Z,5
2017-09-13T04:42:40.188Z,5
2017-09-13T04:43:40.503Z,5
2017-09-13T04:44:39.837Z,5
2017-09-13T04:45:40.507Z,5
2017-09-13T04:46:40.487Z,5
2017-09-13T04:47:39.811Z,5
2017-09-13T04:48:40.124Z,5
2017-09-13T04:49:40.112Z,5
2017-09-13T04:50:39.792Z,5
2017-09-13T04:51:39.777Z,10
2017-09-13T04:52:40.441Z,10
2017-09-13T04:53:39.744Z,10
2017-09-13T04:54:40.263Z,10
2017-09-13T04:55:40.720Z,10
2017-09-13T04:56:40.375Z,10
2017-09-13T04:57:40.710Z,10
2017-09-13T04:58:40.677Z,10
2017-09-13T04:59:40.349Z,10
2017-09-13T05:00:40.004Z,15
2017-09-13T05:01:40.015Z,15
2017-09-13T05:02:40.005Z,15
2017-09-13T05:03:39.674Z,20
2017-09-13T05:04:40.298Z,20
2017-09-13T05:05:40.284Z,20
2017-09-13T05:06:39.619Z,20
2017-09-13T05:07:39.624Z,20
2017-09-13T05:08:40.936Z,20
2017-09-13T05:09:39.585Z,20
2017-09-13T05:10:39.916Z,20
2017-09-13T05:11:39.918Z,20
2017-09-13T05:12:39.903Z,15
2017-09-13T05:13:40.218Z,20
2017-09-13T05:14:39.541Z,20
2017-09-13T05:15:39.545Z,25
2017-09-13T05:16:39.519Z,25
2017-09-13T05:17:39.838Z,30
2017-09-13T05:18:40.160Z,30
2017-09-13T05:19:40.165Z,30
2017-09-13T05:20:39.809Z,35
2017-09-13T05:21:39.814Z,40
2017-09-13T05:22:39.793Z,45
2017-09-13T05:23:40.109Z,50
2017-09-13T05:24:39.500Z,50
2017-09-13T05:25:40.103Z,50
2017-09-13T05:26:39.757Z,45
2017-09-13T05:27:39.735Z,45
2017-09-13T05:28:39.727Z,45
2017-09-13T05:29:40.396Z,45
2017-09-13T05:30:39.714Z,45
2017-09-13T05:31:39.370Z,45
2017-09-13T05:32:39.709Z,50
2017-09-13T05:33:39.689Z,55
2017-09-13T05:34:40.020Z,60
2017-09-13T05:35:39.676Z,65
2017-09-13T05:36:39.333Z,75
2017-09-13T05:37:40.292Z,75
2017-09-13T05:38:40.286Z,80
2017-09-13T05:39:39.313Z,90
2017-09-13T05:40:39.609Z,95
2017-09-13T05:41:39.936Z,95
2017-09-13T05:42:39.597Z,90
2017-09-13T05:43:39.251Z,80
2017-09-13T05:44:39.602Z,75
2017-09-13T05:45:39.569Z,70
2017-09-13T05:46:39.566Z,70
2017-09-13T05:47:39.925Z,75
2017-09-13T05:48:39.607Z,75
2017-09-13T05:49:39.528Z,70
2017-09-13T05:50:39.514Z,70
2017-09-13T05:51:39.547Z,70
2017-09-13T05:52:39.498Z,75
2017-09-13T05:53:39.813Z,85
2017-09-13T05:54:39.491Z,100
2017-09-13T05:55:39.469Z,105
2017-09-13T05:56:39.485Z,100
2017-09-13T05:57:40.130Z,95
2017-09-13T05:58:39.781Z,95
2017-09-13T05:59:39.105Z,95
2017-09-13T06:00:39.754Z,100
2017-09-13T06:01:39.414Z,100
2017-09-13T06:02:39.412Z,105
2017-09-13T06:03:39.423Z,110
2017-09-13T06:04:39.405Z,120
2017-09-13T06:05:39.058Z,145
2017-09-13T06:06:39.705Z,155
2017-09-13T06:07:39.380Z,170
2017-09-13T06:08:39.394Z,160
2017-09-13T06:09:39.027Z,145
2017-09-13T06:10:40.191Z,130
2017-09-13T06:11:39.326Z,120
2017-09-13T06:12:39.305Z,130
2017-09-13T06:13:39.295Z,140
2017-09-13T06:14:39.612Z,150
2017-09-13T06:15:39.275Z,140
2017-09-13T06:16:38.957Z,125
2017-09-13T06:17:39.947Z,135
2017-09-13T06:18:39.248Z,150
2017-09-13T06:19:39.579Z,155
2017-09-13T06:20:38.936Z,140
2017-09-13T06:21:39.249Z,140
2017-09-13T06:22:39.217Z,150
2017-09-13T06:23:39.230Z,145
2017-09-13T06:24:39.221Z,140
2017-09-13T06:25:39.210Z,140
2017-09-13T06:26:38.854Z,140
2017-09-13T06:27:39.171Z,130
2017-09-13T06:28:39.193Z,130
2017-09-13T06:29:39.155Z,130
2017-09-13T06:30:39.153Z,140
2017-09-13T06:31:38.817Z,155
2017-09-13T06:32:39.461Z,170
2017-09-13T06:33:39.472Z,190
2017-09-13T06:34:39.124Z,210
2017-09-13T06:35:39.438Z,240
2017-09-13T06:36:39.089Z,250
2017-09-13T06:37:38.758Z,245
2017-09-13T06:38:39.422Z,245
2017-09-13T06:39:39.399Z,225
2017-09-13T06:40:39.398Z,200
2017-09-13T06:41:39.065Z,200
2017-09-13T06:42:38.710Z,210
2017-09-13T06:43:39.686Z,215
2017-09-13T06:44:39.035Z,210
2017-09-13T06:45:39.036Z,190
2017-09-13T06:46:39.002Z,175
2017-09-13T06:47:39.752Z,165
2017-09-13T06:48:39.010Z,155
2017-09-13T06:49:39.321Z,140
2017-09-13T06:50:38.983Z,140
2017-09-13T06:51:39.307Z,155
2017-09-13T06:52:39.304Z,185
2017-09-13T06:53:39.001Z,215
2017-09-13T06:54:38.626Z,220
2017-09-13T06:55:39.273Z,220
2017-09-13T06:56:38.591Z,220
2017-09-13T06:57:38.599Z,230
2017-09-13T06:58:39.894Z,240
2017-09-13T06:59:39.241Z,235
2017-09-13T07:00:38.891Z,215
2017-09-13T07:01:38.555Z,210
2017-09-13T07:02:38.876Z,220
2017-09-13T07:03:38.542Z,235
2017-09-13T07:04:38.530Z,250
2017-09-13T07:05:39.512Z,255
2017-09-13T07:06:38.858Z,260
2017-09-13T07:07:39.195Z,255
2017-09-13T07:08:38.510Z,225
2017-09-13T07:09:38.826Z,190
2017-09-13T07:10:38.489Z,200
2017-09-13T07:11:39.169Z,210
2017-09-13T07:12:38.480Z,220
2017-09-13T07:13:39.459Z,215
2017-09-13T07:14:39.112Z,220
2017-09-13T07:15:38.792Z,275
2017-09-13T07:16:39.092Z,330
2017-09-13T07:17:38.768Z,370
2017-09-13T07:18:38.762Z,300
2017-09-13T07:19:38.755Z,260
2017-09-13T07:20:38.732Z,240
2017-09-13T07:21:38.745Z,210
2017-09-13T07:22:38.744Z,180
2017-09-13T07:23:38.383Z,190
2017-09-13T07:24:38.700Z,185
2017-09-13T07:25:38.730Z,170
2017-09-13T07:26:38.693Z,175
2017-09-13T07:27:38.681Z,165
2017-09-13T07:28:38.341Z,150
2017-09-13T07:29:38.666Z,155
2017-09-13T07:30:39.029Z,160
2017-09-13T07:31:38.663Z,200
2017-09-13T07:32:38.646Z,305
2017-09-13T07:33:38.987Z,330
2017-09-13T07:34:38.633Z,320
2017-09-13T07:35:38.650Z,370
2017-09-13T07:36:38.298Z,295
2017-09-13T07:37:38.273Z,270
2017-09-13T07:38:39.588Z,250
2017-09-13T07:39:38.268Z,240
2017-09-13T07:40:38.250Z,235
2017-09-13T07:41:38.245Z,220
2017-09-13T07:42:38.578Z,210
2017-09-13T07:43:38.558Z,240
2017-09-13T07:44:38.572Z,275
2017-09-13T07:45:38.541Z,310
2017-09-13T07:46:38.563Z,315
2017-09-13T07:47:38.858Z,285
2017-09-13T07:48:38.517Z,340
2017-09-13T07:49:38.200Z,380
2017-09-13T07:50:38.861Z,385
2017-09-13T07:51:38.822Z,315
2017-09-13T07:52:38.534Z,275
2017-09-13T07:53:38.489Z,300
2017-09-13T07:54:38.527Z,345
2017-09-13T07:55:38.855Z,385
2017-09-13T07:56:38.804Z,325
2017-09-13T07:57:38.797Z,280
2017-09-13T07:58:38.458Z,295
2017-09-13T07:59:38.469Z,325
2017-09-13T08:00:38.135Z,315
2017-09-13T08:01:38.788Z,295
2017-09-13T08:02:38.115Z,275
2017-09-13T08:03:38.103Z,265
2017-09-13T08:04:38.076Z,250
2017-09-13T08:05:38.408Z,245
2017-09-13T08:06:38.065Z,195
2017-09-13T08:07:38.054Z,155
2017-09-13T08:08:38.047Z,160
2017-09-13T08:09:38.041Z,190
2017-09-13T08:10:38.032Z,240
2017-09-13T08:11:38.025Z,270
2017-09-13T08:12:38.684Z,275
2017-09-13T08:13:38.712Z,275
2017-09-13T08:14:38.003Z,250
2017-09-13T08:15:37.994Z,275
2017-09-13T08:16:38.320Z,365
2017-09-13T08:17:37.984Z,385
2017-09-13T08:18:38.653Z,460
2017-09-13T08:19:39.305Z,445
2017-09-13T08:20:38.986Z,375
2017-09-13T08:21:38.307Z,365
2017-09-13T08:22:37.953Z,380
2017-09-13T08:23:37.965Z,320
2017-09-13T08:24:38.607Z,335
2017-09-13T08:25:38.260Z,335
2017-09-13T08:26:38.267Z,320
2017-09-13T08:27:39.239Z,335
2017-09-13T08:28:38.241Z,370
2017-09-13T08:29:38.929Z,455
2017-09-13T08:30:38.912Z,440
2017-09-13T08:31:37.943Z,385
2017-09-13T08:32:38.206Z,370
2017-09-13T08:33:38.233Z,380
2017-09-13T08:34:38.551Z,345
2017-09-13T08:35:38.183Z,335
2017-09-13T08:36:38.526Z,365
2017-09-13T08:37:37.858Z,430
2017-09-13T08:38:38.828Z,445
2017-09-13T08:39:38.197Z,400
2017-09-13T08:40:37.841Z,385
2017-09-13T08:41:38.523Z,355
2017-09-13T08:42:37.854Z,310
2017-09-13T08:43:38.146Z,290
2017-09-13T08:44:37.806Z,270
2017-09-13T08:45:38.121Z,260
2017-09-13T08:46:38.773Z,270
2017-09-13T08:47:38.322Z,280
2017-09-13T08:48:38.765Z,275
2017-09-13T08:49:38.431Z,250
2017-09-13T08:50:38.103Z,245
2017-09-13T08:51:38.109Z,230
2017-09-13T08:52:38.081Z,250
2017-09-13T08:53:38.114Z,290
2017-09-13T08:54:37.838Z,340
2017-09-13T08:55:38.732Z,380
2017-09-13T08:56:38.393Z,425
2017-09-13T08:57:37.731Z,455
2017-09-13T08:58:38.411Z,435
2017-09-13T08:59:38.040Z,445
2017-09-13T09:00:38.036Z,465
2017-09-13T09:01:38.378Z,395
2017-09-13T09:02:38.033Z,385
2017-09-13T09:03:38.012Z,375
2017-09-13T09:04:38.014Z,350
2017-09-13T09:05:38.003Z,345
2017-09-13T09:06:38.985Z,320
2017-09-13T09:07:38.321Z,335
2017-09-13T09:08:38.370Z,340
2017-09-13T09:09:38.705Z,350
2017-09-13T09:10:37.986Z,355
2017-09-13T09:11:38.293Z,350
2017-09-13T09:12:38.327Z,340
2017-09-13T09:13:38.922Z,340
2017-09-13T09:14:37.621Z,345
2017-09-13T09:15:38.250Z,340
2017-09-13T09:16:37.942Z,350
2017-09-13T09:17:37.601Z,355
2017-09-13T09:18:38.303Z,380
2017-09-13T09:19:38.581Z,380
2017-09-13T09:20:37.894Z,425
2017-09-13T09:21:38.553Z,415
2017-09-13T09:22:37.877Z,415
2017-09-13T09:23:38.225Z,410
2017-09-13T09:24:38.211Z,420
2017-09-13T09:25:37.856Z,410
2017-09-13T09:26:37.855Z,405
2017-09-13T09:27:38.544Z,400
2017-09-13T09:28:37.840Z,375
2017-09-13T09:29:38.175Z,320
2017-09-13T09:30:37.498Z,330
2017-09-13T09:31:37.820Z,335
2017-09-13T09:32:37.491Z,375
2017-09-13T09:33:37.805Z,395
2017-09-13T09:34:37.819Z,415
2017-09-13T09:35:37.462Z,370
2017-09-13T09:36:38.129Z,375
2017-09-13T09:37:37.805Z,335
2017-09-13T09:38:37.805Z,340
2017-09-13T09:39:37.848Z,325
2017-09-13T09:40:37.796Z,335
2017-09-13T09:41:37.777Z,330
2017-09-13T09:42:38.079Z,320
2017-09-13T09:43:38.086Z,320
2017-09-13T09:44:37.782Z,305
2017-09-13T09:45:38.069Z,320
2017-09-13T09:46:38.059Z,345
2017-09-13T09:47:38.050Z,375
2017-09-13T09:48:37.714Z,360
2017-09-13T09:49:37.415Z,370
2017-09-13T09:50:37.714Z,355
2017-09-13T09:51:38.372Z,280
2017-09-13T09:52:38.032Z,250
2017-09-13T09:53:38.031Z,255
2017-09-13T09:54:37.697Z,315
2017-09-13T09:55:37.697Z,305
2017-09-13T09:56:38.321Z,355
2017-09-13T09:57:38.013Z,340
2017-09-13T09:58:37.324Z,355
2017-09-13T09:59:38.318Z,395
2017-09-13T10:00:37.974Z,380
2017-09-13T10:01:37.971Z,410
2017-09-13T10:02:38.324Z,350
2017-09-13T10:03:38.298Z,295
2017-09-13T10:04:37.966Z,270
2017-09-13T10:05:37.611Z,270
2017-09-13T10:06:37.616Z,315
2017-09-13T10:07:38.282Z,380
2017-09-13T10:08:37.586Z,425
2017-09-13T10:09:37.929Z,455
2017-09-13T10:10:37.920Z,405
2017-09-13T10:11:37.941Z,325
2017-09-13T10:12:37.572Z,310
2017-09-13T10:13:38.215Z,370
2017-09-13T10:14:37.563Z,405
2017-09-13T10:15:37.547Z,395
2017-09-13T10:16:38.207Z,395
2017-09-13T10:17:37.888Z,405
2017-09-13T10:18:37.860Z,380
2017-09-13T10:19:38.179Z,400
2017-09-13T10:20:37.840Z,385
2017-09-13T10:21:37.535Z,370
2017-09-13T10:22:37.180Z,355
2017-09-13T10:23:37.500Z,305
2017-09-13T10:24:37.828Z,215
2017-09-13T10:25:37.488Z,265
2017-09-13T10:26:37.484Z,355
2017-09-13T10:27:37.508Z,350
2017-09-13T10:28:37.471Z,390
2017-09-13T10:29:37.207Z,365
2017-09-13T10:30:37.451Z,380
2017-09-13T10:31:37.776Z,360
2017-09-13T10:32:37.815Z,350
2017-09-13T10:33:37.479Z,375
2017-09-13T10:34:37.105Z,340
2017-09-13T10:35:37.767Z,315
2017-09-13T10:36:37.440Z,310
2017-09-13T10:37:37.100Z,325
2017-09-13T10:38:37.082Z,295
2017-09-13T10:39:37.410Z,265
2017-09-13T10:40:37.397Z,305
2017-09-13T10:41:37.396Z,275
2017-09-13T10:42:37.096Z,300
2017-09-13T10:43:37.058Z,305
2017-09-13T10:44:37.701Z,300
2017-09-13T10:45:37.369Z,290
2017-09-13T10:46:37.715Z,300
2017-09-13T10:47:37.030Z,320
2017-09-13T10:48:37.684Z,335
2017-09-13T10:49:37.697Z,410
2017-09-13T10:50:37.339Z,385
2017-09-13T10:51:37.687Z,360
2017-09-13T10:52:37.383Z,350
2017-09-13T10:53:37.980Z,395
2017-09-13T10:54:37.329Z,450
2017-09-13T10:55:37.012Z,450
2017-09-13T10:56:37.325Z,400
2017-09-13T10:57:37.625Z,380
2017-09-13T10:58:37.301Z,375
2017-09-13T10:59:37.614Z,370
2017-09-13T11:00:37.314Z,365
2017-09-13T11:01:37.287Z,335
2017-09-13T11:02:37.612Z,305
2017-09-13T11:03:37.284Z,375
2017-09-13T11:04:37.584Z,385
2017-09-13T11:05:36.943Z,375
2017-09-13T11:06:37.584Z,350
2017-09-13T11:07:37.257Z,350
2017-09-13T11:08:37.243Z,360
2017-09-13T11:09:37.560Z,345
2017-09-13T11:10:37.249Z,320
2017-09-13T11:11:37.222Z,320
2017-09-13T11:12:37.538Z,350
2017-09-13T11:13:37.890Z,375
2017-09-13T11:14:37.205Z,390
2017-09-13T11:15:37.193Z,395
2017-09-13T11:16:36.906Z,390
2017-09-13T11:17:36.907Z,350
2017-09-13T11:18:36.844Z,340
2017-09-13T11:19:36.865Z,330
2017-09-13T11:20:36.881Z,300
2017-09-13T11:21:37.851Z,315
2017-09-13T11:22:37.156Z,350
2017-09-13T11:23:37.149Z,370
2017-09-13T11:24:37.496Z,370
2017-09-13T11:25:37.817Z,335
2017-09-13T11:26:36.810Z,310
2017-09-13T11:27:37.462Z,385
2017-09-13T11:28:37.153Z,370
2017-09-13T11:29:37.451Z,370
2017-09-13T11:30:37.121Z,420
2017-09-13T11:31:37.435Z,390
2017-09-13T11:32:37.430Z,415
2017-09-13T11:33:37.423Z,425
2017-09-13T11:34:37.112Z,500
2017-09-13T11:35:37.418Z,470
2017-09-13T11:36:36.759Z,490
2017-09-13T11:37:37.753Z,470
2017-09-13T11:38:37.435Z,475
2017-09-13T11:39:36.740Z,480
2017-09-13T11:40:37.406Z,480
2017-09-13T11:41:37.418Z,475
2017-09-13T11:42:37.070Z,495
2017-09-13T11:43:37.047Z,480
2017-09-13T11:44:37.069Z,470
2017-09-13T11:45:37.366Z,500
2017-09-13T11:46:44.899Z,490
2017-09-13T11:47:37.032Z,480
2017-09-13T11:48:37.362Z,470
2017-09-13T11:49:36.711Z,475
2017-09-13T11:50:37.355Z,460
2017-09-13T11:51:37.344Z,455
2017-09-13T11:52:37.355Z,460
2017-09-13T11:53:37.329Z,465
2017-09-13T11:54:36.997Z,500
2017-09-13T11:55:37.001Z,480
2017-09-13T11:56:37.317Z,495
2017-09-13T11:57:37.041Z,490
2017-09-13T11:58:37.364Z,450
2017-09-13T11:59:36.982Z,410
2017-09-13T12:00:36.647Z,385
2017-09-13T12:01:36.996Z,380
2017-09-13T12:02:36.976Z,360
2017-09-13T12:03:37.617Z,360
2017-09-13T12:04:37.282Z,385
2017-09-13T12:05:37.278Z,420
2017-09-13T12:06:36.945Z,410
2017-09-13T12:07:36.608Z,330
2017-09-13T12:08:36.961Z,370
2017-09-13T12:09:36.957Z,360
2017-09-13T12:10:36.933Z,355
2017-09-13T12:11:37.286Z,365
2017-09-13T12:12:36.934Z,445
2017-09-13T12:13:37.241Z,485
2017-09-13T12:14:37.251Z,400
2017-09-13T12:15:37.233Z,420
2017-09-13T12:16:37.227Z,455
2017-09-13T12:17:37.227Z,455
2017-09-13T12:18:36.890Z,410
2017-09-13T12:19:36.897Z,445
2017-09-13T12:20:36.914Z,385
2017-09-13T12:21:37.535Z,385
2017-09-13T12:22:37.219Z,390
2017-09-13T12:23:36.894Z,330
2017-09-13T12:24:36.869Z,305
2017-09-13T12:25:37.865Z,365
2017-09-13T12:26:36.855Z,405
2017-09-13T12:27:36.885Z,440
2017-09-13T12:28:36.520Z,420
2017-09-13T12:29:36.846Z,425
2017-09-13T12:30:37.188Z,430
2017-09-13T12:31:36.847Z,405
2017-09-13T12:32:37.491Z,360
2017-09-13T12:33:37.156Z,400
2017-09-13T12:34:36.837Z,415
2017-09-13T12:35:37.166Z,415
2017-09-13T12:36:37.172Z,415
2017-09-13T12:37:36.498Z,365
2017-09-13T12:38:36.826Z,375
2017-09-13T12:39:37.120Z,365
2017-09-13T12:40:36.800Z,305
2017-09-13T12:41:36.818Z,335
2017-09-13T12:42:36.785Z,360
2017-09-13T12:43:37.469Z,295
2017-09-13T12:44:36.662Z,355
2017-09-13T12:45:37.097Z,335
2017-09-13T12:46:36.768Z,325
2017-09-13T12:47:36.430Z,350
2017-09-13T12:48:37.099Z,340
2017-09-13T12:49:36.755Z,365
2017-09-13T12:50:37.083Z,360
2017-09-13T12:51:37.072Z,310
2017-09-13T12:52:37.402Z,310
2017-09-13T12:53:36.445Z,265
2017-09-13T12:54:37.074Z,285
2017-09-13T12:55:37.060Z,290
2017-09-13T12:56:36.715Z,250
2017-09-13T12:57:36.386Z,230
2017-09-13T12:58:36.709Z,260
2017-09-13T12:59:36.702Z,260
2017-09-13T13:00:36.698Z,215
2017-09-13T13:01:37.365Z,190
2017-09-13T13:02:36.697Z,205
2017-09-13T13:03:37.037Z,185
2017-09-13T13:04:37.665Z,165
2017-09-13T13:05:36.694Z,120
2017-09-13T13:06:36.670Z,155
2017-09-13T13:07:37.331Z,185
2017-09-13T13:08:36.668Z,175
2017-09-13T13:09:36.983Z,165
2017-09-13T13:10:36.975Z,155
2017-09-13T13:11:36.972Z,180
2017-09-13T13:12:36.636Z,185
2017-09-13T13:13:36.680Z,185
2017-09-13T13:14:36.643Z,145
2017-09-13T13:15:36.971Z,125
2017-09-13T13:16:36.280Z,165
2017-09-13T13:17:36.606Z,170
2017-09-13T13:18:36.270Z,145
2017-09-13T13:19:36.932Z,155
2017-09-13T13:20:36.945Z,125
2017-09-13T13:21:36.631Z,155
2017-09-13T13:22:37.255Z,140
2017-09-13T13:23:36.905Z,150
2017-09-13T13:24:36.929Z,170
2017-09-13T13:25:36.904Z,155
2017-09-13T13:26:37.550Z,120
2017-09-13T13:27:36.876Z,115
2017-09-13T13:28:36.235Z,130
2017-09-13T13:29:36.535Z,105
2017-09-13T13:30:36.534Z,135
2017-09-13T13:31:36.864Z,105
2017-09-13T13:32:36.514Z,115
2017-09-13T13:33:36.859Z,100
2017-09-13T13:34:36.850Z,130
2017-09-13T13:35:36.842Z,110
2017-09-13T13:36:36.161Z,110
2017-09-13T13:37:36.481Z,110
2017-09-13T13:38:37.138Z,105
2017-09-13T13:39:36.473Z,130
2017-09-13T13:40:36.484Z,130
2017-09-13T13:41:37.136Z,115
2017-09-13T13:42:36.458Z,125
2017-09-13T13:43:36.464Z,160
2017-09-13T13:44:36.771Z,170
2017-09-13T13:45:36.101Z,150
2017-09-13T13:46:36.480Z,200
2017-09-13T13:47:36.418Z,245
2017-09-13T13:48:36.082Z,245
2017-09-13T13:49:36.769Z,270
2017-09-13T13:50:36.399Z,260
2017-09-13T13:51:36.723Z,300
2017-09-13T13:52:36.404Z,280
2017-09-13T13:53:36.055Z,230
2017-09-13T13:54:36.699Z,255
2017-09-13T13:55:36.704Z,210
2017-09-13T13:56:37.016Z,180
2017-09-13T13:57:36.699Z,185
2017-09-13T13:58:36.353Z,200
2017-09-13T13:59:36.668Z,200
2017-09-13T14:00:36.335Z,215
2017-09-13T14:01:36.328Z,150
2017-09-13T14:02:36.364Z,135
2017-09-13T14:03:36.662Z,155
2017-09-13T14:04:36.307Z,120
2017-09-13T14:05:36.661Z,100
2017-09-13T14:06:36.636Z,90
2017-09-13T14:07:36.299Z,80
2017-09-13T14:08:35.948Z,95
2017-09-13T14:09:35.950Z,120
2017-09-13T14:10:36.603Z,140
2017-09-13T14:11:35.933Z,220